sensor_id;sensor_type;location;lat;lon;timestamp;P1;durP1;ratioP1;P2;durP2;ratioP2
45548;SDS011;31270;48.328;10.096;2023-06-04T00:02:12;10.73;;;6.50;;
45548;SDS011;31270;48.328;10.096;2023-06-04T00:04:37;11.18;;;5.50;;
45548;SDS011;31270;48.328;10.096;2023-06-04T00:07:03;9.80;;;5.70;;
45548;SDS011;31270;48.328;10.096;2023-06-04T00:09:29;9.25;;;5.45;;
45548;SDS011;31270;48.328;10.096;2023-06-04T00:11:55;7.45;;;5.32;;
45548;SDS011;31270;48.328;10.096;2023-06-04T00:14:21;9.52;;;5.45;;
45548;SDS011;31270;48.328;10.096;2023-06-04T00:16:46;6.90;;;4.65;;
45548;SDS011;31270;48.328;10.096;2023-06-04T00:19:12;8.27;;;5.13;;
45548;SDS011;31270;48.328;10.096;2023-06-04T00:21:38;8.20;;;4.90;;
45548;SDS011;31270;48.328;10.096;2023-06-04T00:24:03;8.77;;;5.25;;
45548;SDS011;31270;48.328;10.096;2023-06-04T00:26:29;7.22;;;4.60;;
45548;SDS011;31270;48.328;10.096;2023-06-04T00:28:55;6.82;;;4.60;;
45548;SDS011;31270;48.328;10.096;2023-06-04T00:31:20;8.07;;;5.00;;
45548;SDS011;31270;48.328;10.096;2023-06-04T00:33:47;8.68;;;5.00;;
45548;SDS011;31270;48.328;10.096;2023-06-04T00:36:12;8.40;;;5.27;;
45548;SDS011;31270;48.328;10.096;2023-06-04T00:38:38;8.73;;;4.53;;
45548;SDS011;31270;48.328;10.096;2023-06-04T00:41:04;11.32;;;5.78;;
45548;SDS011;31270;48.328;10.096;2023-06-04T00:43:29;9.80;;;5.05;;
45548;SDS011;31270;48.328;10.096;2023-06-04T00:45:56;8.50;;;5.17;;
45548;SDS011;31270;48.328;10.096;2023-06-04T00:48:22;8.47;;;4.80;;
45548;SDS011;31270;48.328;10.096;2023-06-04T00:50:49;8.40;;;4.80;;
45548;SDS011;31270;48.328;10.096;2023-06-04T00:53:16;7.70;;;5.03;;
45548;SDS011;31270;48.328;10.096;2023-06-04T00:55:42;8.90;;;4.72;;
45548;SDS011;31270;48.328;10.096;2023-06-04T00:58:08;5.80;;;4.40;;
45548;SDS011;31270;48.328;10.096;2023-06-04T01:00:35;7.20;;;5.10;;
45548;SDS011;31270;48.328;10.096;2023-06-04T01:03:03;7.30;;;4.27;;
45548;SDS011;31270;48.328;10.096;2023-06-04T01:08:30;8.80;;;5.10;;
45548;SDS011;31270;48.328;10.096;2023-06-04T01:10:56;13.53;;;4.77;;
45548;SDS011;31270;48.328;10.096;2023-06-04T01:13:22;9.50;;;4.53;;
45548;SDS011;31270;48.328;10.096;2023-06-04T01:15:49;8.83;;;4.63;;
45548;SDS011;31270;48.328;10.096;2023-06-04T01:18:15;8.77;;;4.07;;
45548;SDS011;31270;48.328;10.096;2023-06-04T01:20:54;6.77;;;3.57;;
45548;SDS011;31270;48.328;10.096;2023-06-04T01:26:12;6.00;;;3.77;;
45548;SDS011;31270;48.328;10.096;2023-06-04T01:28:38;5.47;;;3.70;;
45548;SDS011;31270;48.328;10.096;2023-06-04T01:31:05;6.00;;;4.03;;
45548;SDS011;31270;48.328;10.096;2023-06-04T01:33:34;5.57;;;3.60;;
45548;SDS011;31270;48.328;10.096;2023-06-04T01:36:00;8.83;;;3.90;;
45548;SDS011;31270;48.328;10.096;2023-06-04T01:38:27;5.23;;;3.40;;
45548;SDS011;31270;48.328;10.096;2023-06-04T01:40:52;9.77;;;4.17;;
45548;SDS011;31270;48.328;10.096;2023-06-04T01:43:21;5.57;;;3.53;;
45548;SDS011;31270;48.328;10.096;2023-06-04T01:45:47;5.90;;;3.77;;
45548;SDS011;31270;48.328;10.096;2023-06-04T01:48:13;5.77;;;3.50;;
45548;SDS011;31270;48.328;10.096;2023-06-04T01:50:39;4.53;;;3.27;;
45548;SDS011;31270;48.328;10.096;2023-06-04T01:53:05;6.67;;;3.60;;
45548;SDS011;31270;48.328;10.096;2023-06-04T01:55:31;5.23;;;3.43;;
45548;SDS011;31270;48.328;10.096;2023-06-04T01:57:58;7.97;;;3.13;;
45548;SDS011;31270;48.328;10.096;2023-06-04T02:00:24;4.50;;;2.97;;
45548;SDS011;31270;48.328;10.096;2023-06-04T02:02:50;7.50;;;3.63;;
45548;SDS011;31270;48.328;10.096;2023-06-04T02:05:16;4.47;;;2.87;;
45548;SDS011;31270;48.328;10.096;2023-06-04T02:07:43;5.53;;;3.40;;
45548;SDS011;31270;48.328;10.096;2023-06-04T02:10:14;4.97;;;3.03;;
45548;SDS011;31270;48.328;10.096;2023-06-04T02:12:41;4.17;;;3.00;;
45548;SDS011;31270;48.328;10.096;2023-06-04T02:15:19;6.63;;;3.07;;
45548;SDS011;31270;48.328;10.096;2023-06-04T02:17:45;4.80;;;3.07;;
45548;SDS011;31270;48.328;10.096;2023-06-04T02:20:12;3.70;;;2.43;;
45548;SDS011;31270;48.328;10.096;2023-06-04T02:22:38;6.80;;;3.80;;
45548;SDS011;31270;48.328;10.096;2023-06-04T02:25:04;3.97;;;2.77;;
45548;SDS011;31270;48.328;10.096;2023-06-04T02:27:30;3.13;;;2.47;;
45548;SDS011;31270;48.328;10.096;2023-06-04T02:29:56;4.87;;;3.30;;
45548;SDS011;31270;48.328;10.096;2023-06-04T02:32:21;4.17;;;2.70;;
45548;SDS011;31270;48.328;10.096;2023-06-04T02:34:47;3.83;;;2.73;;
45548;SDS011;31270;48.328;10.096;2023-06-04T02:37:13;6.90;;;2.83;;
45548;SDS011;31270;48.328;10.096;2023-06-04T02:39:39;3.77;;;2.43;;
45548;SDS011;31270;48.328;10.096;2023-06-04T02:42:05;3.37;;;2.30;;
45548;SDS011;31270;48.328;10.096;2023-06-04T02:44:31;4.70;;;2.80;;
45548;SDS011;31270;48.328;10.096;2023-06-04T02:46:56;5.70;;;3.13;;
45548;SDS011;31270;48.328;10.096;2023-06-04T02:49:22;5.13;;;2.90;;
45548;SDS011;31270;48.328;10.096;2023-06-04T02:51:47;7.53;;;2.33;;
45548;SDS011;31270;48.328;10.096;2023-06-04T02:54:13;3.63;;;2.70;;
45548;SDS011;31270;48.328;10.096;2023-06-04T02:56:39;6.03;;;2.63;;
45548;SDS011;31270;48.328;10.096;2023-06-04T02:59:05;2.60;;;2.30;;
45548;SDS011;31270;48.328;10.096;2023-06-04T03:01:34;4.60;;;2.40;;
45548;SDS011;31270;48.328;10.096;2023-06-04T03:04:00;4.90;;;2.23;;
45548;SDS011;31270;48.328;10.096;2023-06-04T03:06:28;4.70;;;2.87;;
45548;SDS011;31270;48.328;10.096;2023-06-04T03:08:54;5.10;;;2.63;;
45548;SDS011;31270;48.328;10.096;2023-06-04T03:11:20;4.27;;;2.93;;
45548;SDS011;31270;48.328;10.096;2023-06-04T03:13:47;4.67;;;2.50;;
45548;SDS011;31270;48.328;10.096;2023-06-04T03:16:13;3.83;;;2.70;;
45548;SDS011;31270;48.328;10.096;2023-06-04T03:18:39;4.70;;;2.37;;
45548;SDS011;31270;48.328;10.096;2023-06-04T03:21:06;4.50;;;2.37;;
45548;SDS011;31270;48.328;10.096;2023-06-04T03:23:32;4.33;;;2.80;;
45548;SDS011;31270;48.328;10.096;2023-06-04T03:26:00;3.97;;;2.60;;
45548;SDS011;31270;48.328;10.096;2023-06-04T03:28:26;5.30;;;2.90;;
45548;SDS011;31270;48.328;10.096;2023-06-04T03:31:11;5.93;;;2.47;;
45548;SDS011;31270;48.328;10.096;2023-06-04T03:33:37;5.93;;;2.57;;
45548;SDS011;31270;48.328;10.096;2023-06-04T03:36:03;3.37;;;2.67;;
45548;SDS011;31270;48.328;10.096;2023-06-04T03:38:29;4.17;;;2.50;;
45548;SDS011;31270;48.328;10.096;2023-06-04T03:40:54;4.77;;;2.70;;
45548;SDS011;31270;48.328;10.096;2023-06-04T03:43:20;4.07;;;2.27;;
45548;SDS011;31270;48.328;10.096;2023-06-04T03:45:46;4.33;;;2.53;;
45548;SDS011;31270;48.328;10.096;2023-06-04T03:48:12;3.30;;;2.33;;
45548;SDS011;31270;48.328;10.096;2023-06-04T03:50:38;3.27;;;2.30;;
45548;SDS011;31270;48.328;10.096;2023-06-04T03:53:03;3.03;;;2.10;;
45548;SDS011;31270;48.328;10.096;2023-06-04T03:55:32;2.70;;;2.17;;
45548;SDS011;31270;48.328;10.096;2023-06-04T03:57:58;3.20;;;2.17;;
45548;SDS011;31270;48.328;10.096;2023-06-04T04:00:24;4.10;;;2.50;;
45548;SDS011;31270;48.328;10.096;2023-06-04T04:02:50;3.37;;;2.17;;
45548;SDS011;31270;48.328;10.096;2023-06-04T04:05:16;3.07;;;2.73;;
45548;SDS011;31270;48.328;10.096;2023-06-04T04:07:42;3.50;;;2.23;;
45548;SDS011;31270;48.328;10.096;2023-06-04T04:10:07;3.50;;;2.30;;
45548;SDS011;31270;48.328;10.096;2023-06-04T04:12:33;2.07;;;1.77;;
45548;SDS011;31270;48.328;10.096;2023-06-04T04:14:59;2.87;;;1.90;;
45548;SDS011;31270;48.328;10.096;2023-06-04T04:17:25;3.00;;;1.80;;
45548;SDS011;31270;48.328;10.096;2023-06-04T04:19:51;3.53;;;1.80;;
45548;SDS011;31270;48.328;10.096;2023-06-04T04:22:16;4.17;;;2.23;;
45548;SDS011;31270;48.328;10.096;2023-06-04T04:24:42;6.63;;;2.13;;
45548;SDS011;31270;48.328;10.096;2023-06-04T04:27:08;3.07;;;2.17;;
45548;SDS011;31270;48.328;10.096;2023-06-04T04:29:37;4.10;;;1.97;;
45548;SDS011;31270;48.328;10.096;2023-06-04T04:32:03;5.27;;;2.30;;
45548;SDS011;31270;48.328;10.096;2023-06-04T04:34:35;3.27;;;2.33;;
45548;SDS011;31270;48.328;10.096;2023-06-04T04:37:05;2.40;;;1.70;;
45548;SDS011;31270;48.328;10.096;2023-06-04T04:39:33;3.97;;;2.10;;
45548;SDS011;31270;48.328;10.096;2023-06-04T04:42:00;2.23;;;1.73;;
45548;SDS011;31270;48.328;10.096;2023-06-04T04:44:26;3.47;;;2.07;;
45548;SDS011;31270;48.328;10.096;2023-06-04T04:46:52;4.77;;;2.33;;
45548;SDS011;31270;48.328;10.096;2023-06-04T04:49:17;2.50;;;1.63;;
45548;SDS011;31270;48.328;10.096;2023-06-04T04:51:43;4.87;;;2.10;;
45548;SDS011;31270;48.328;10.096;2023-06-04T04:54:08;5.60;;;2.23;;
45548;SDS011;31270;48.328;10.096;2023-06-04T04:56:34;2.23;;;1.93;;
45548;SDS011;31270;48.328;10.096;2023-06-04T04:59:00;2.23;;;1.90;;
45548;SDS011;31270;48.328;10.096;2023-06-04T05:01:26;1.90;;;1.53;;
45548;SDS011;31270;48.328;10.096;2023-06-04T05:03:51;2.27;;;1.80;;
45548;SDS011;31270;48.328;10.096;2023-06-04T05:06:17;5.33;;;1.77;;
45548;SDS011;31270;48.328;10.096;2023-06-04T05:08:43;2.50;;;1.87;;
45548;SDS011;31270;48.328;10.096;2023-06-04T05:11:08;3.57;;;2.33;;
45548;SDS011;31270;48.328;10.096;2023-06-04T05:13:34;3.23;;;2.03;;
45548;SDS011;31270;48.328;10.096;2023-06-04T05:16:01;2.70;;;2.07;;
45548;SDS011;31270;48.328;10.096;2023-06-04T05:18:31;2.67;;;1.70;;
45548;SDS011;31270;48.328;10.096;2023-06-04T05:20:58;5.37;;;2.17;;
45548;SDS011;31270;48.328;10.096;2023-06-04T05:23:25;3.43;;;2.27;;
45548;SDS011;31270;48.328;10.096;2023-06-04T05:25:51;2.57;;;1.73;;
45548;SDS011;31270;48.328;10.096;2023-06-04T05:28:17;5.20;;;2.27;;
45548;SDS011;31270;48.328;10.096;2023-06-04T05:30:43;3.30;;;1.93;;
45548;SDS011;31270;48.328;10.096;2023-06-04T05:33:09;3.55;;;1.80;;
45548;SDS011;31270;48.328;10.096;2023-06-04T05:35:43;3.17;;;1.92;;
45548;SDS011;31270;48.328;10.096;2023-06-04T05:38:10;2.13;;;1.80;;
45548;SDS011;31270;48.328;10.096;2023-06-04T05:40:40;2.88;;;2.00;;
45548;SDS011;31270;48.328;10.096;2023-06-04T05:43:05;3.25;;;2.50;;
45548;SDS011;31270;48.328;10.096;2023-06-04T05:45:32;3.13;;;2.60;;
45548;SDS011;31270;48.328;10.096;2023-06-04T05:47:58;3.07;;;2.23;;
45548;SDS011;31270;48.328;10.096;2023-06-04T05:50:23;4.43;;;2.10;;
45548;SDS011;31270;48.328;10.096;2023-06-04T05:52:50;5.40;;;2.20;;
45548;SDS011;31270;48.328;10.096;2023-06-04T05:55:15;3.13;;;1.98;;
45548;SDS011;31270;48.328;10.096;2023-06-04T05:57:41;2.78;;;1.88;;
45548;SDS011;31270;48.328;10.096;2023-06-04T06:00:07;2.75;;;2.25;;
45548;SDS011;31270;48.328;10.096;2023-06-04T06:02:36;4.20;;;2.13;;
45548;SDS011;31270;48.328;10.096;2023-06-04T06:05:04;2.33;;;1.60;;
45548;SDS011;31270;48.328;10.096;2023-06-04T06:07:32;3.50;;;2.20;;
45548;SDS011;31270;48.328;10.096;2023-06-04T06:09:57;4.90;;;2.57;;
45548;SDS011;31270;48.328;10.096;2023-06-04T06:12:23;4.28;;;1.90;;
45548;SDS011;31270;48.328;10.096;2023-06-04T06:14:48;2.87;;;1.97;;
45548;SDS011;31270;48.328;10.096;2023-06-04T06:17:14;5.18;;;1.98;;
45548;SDS011;31270;48.328;10.096;2023-06-04T06:19:39;4.80;;;2.50;;
45548;SDS011;31270;48.328;10.096;2023-06-04T06:22:05;2.92;;;1.90;;
45548;SDS011;31270;48.328;10.096;2023-06-04T06:24:30;4.45;;;2.03;;
45548;SDS011;31270;48.328;10.096;2023-06-04T06:26:56;3.78;;;2.67;;
45548;SDS011;31270;48.328;10.096;2023-06-04T06:29:22;3.05;;;1.98;;
45548;SDS011;31270;48.328;10.096;2023-06-04T06:31:47;3.92;;;2.22;;
45548;SDS011;31270;48.328;10.096;2023-06-04T06:34:13;3.08;;;2.13;;
45548;SDS011;31270;48.328;10.096;2023-06-04T06:36:38;3.47;;;2.08;;
45548;SDS011;31270;48.328;10.096;2023-06-04T06:39:04;2.88;;;1.80;;
45548;SDS011;31270;48.328;10.096;2023-06-04T06:41:30;3.47;;;2.10;;
45548;SDS011;31270;48.328;10.096;2023-06-04T06:43:56;4.00;;;2.20;;
45548;SDS011;31270;48.328;10.096;2023-06-04T06:46:22;3.63;;;2.03;;
45548;SDS011;31270;48.328;10.096;2023-06-04T06:48:48;3.20;;;2.03;;
45548;SDS011;31270;48.328;10.096;2023-06-04T06:51:14;5.18;;;2.38;;
45548;SDS011;31270;48.328;10.096;2023-06-04T06:53:40;4.05;;;2.10;;
45548;SDS011;31270;48.328;10.096;2023-06-04T06:56:06;3.22;;;2.67;;
45548;SDS011;31270;48.328;10.096;2023-06-04T06:58:31;3.28;;;2.10;;
45548;SDS011;31270;48.328;10.096;2023-06-04T07:00:58;4.63;;;2.13;;
45548;SDS011;31270;48.328;10.096;2023-06-04T07:03:24;2.45;;;2.03;;
45548;SDS011;31270;48.328;10.096;2023-06-04T07:05:50;3.13;;;2.10;;
45548;SDS011;31270;48.328;10.096;2023-06-04T07:08:16;3.05;;;2.30;;
45548;SDS011;31270;48.328;10.096;2023-06-04T07:10:42;2.53;;;2.03;;
45548;SDS011;31270;48.328;10.096;2023-06-04T07:13:08;3.20;;;2.13;;
45548;SDS011;31270;48.328;10.096;2023-06-04T07:15:33;5.25;;;1.80;;
45548;SDS011;31270;48.328;10.096;2023-06-04T07:17:59;3.03;;;2.13;;
45548;SDS011;31270;48.328;10.096;2023-06-04T07:20:25;3.40;;;2.20;;
45548;SDS011;31270;48.328;10.096;2023-06-04T07:22:50;3.30;;;2.05;;
45548;SDS011;31270;48.328;10.096;2023-06-04T07:25:16;2.90;;;2.40;;
45548;SDS011;31270;48.328;10.096;2023-06-04T07:27:41;2.38;;;1.80;;
45548;SDS011;31270;48.328;10.096;2023-06-04T07:30:08;2.42;;;1.90;;
45548;SDS011;31270;48.328;10.096;2023-06-04T07:32:34;3.42;;;2.30;;
45548;SDS011;31270;48.328;10.096;2023-06-04T07:35:01;4.38;;;2.20;;
45548;SDS011;31270;48.328;10.096;2023-06-04T07:37:27;3.28;;;2.03;;
45548;SDS011;31270;48.328;10.096;2023-06-04T07:39:53;4.18;;;2.70;;
45548;SDS011;31270;48.328;10.096;2023-06-04T07:42:18;4.10;;;2.30;;
45548;SDS011;31270;48.328;10.096;2023-06-04T07:44:44;2.83;;;1.95;;
45548;SDS011;31270;48.328;10.096;2023-06-04T07:47:10;4.00;;;2.17;;
45548;SDS011;31270;48.328;10.096;2023-06-04T07:49:35;3.83;;;2.28;;
45548;SDS011;31270;48.328;10.096;2023-06-04T07:52:01;2.85;;;1.80;;
45548;SDS011;31270;48.328;10.096;2023-06-04T07:54:26;3.58;;;2.05;;
45548;SDS011;31270;48.328;10.096;2023-06-04T07:56:52;3.25;;;2.15;;
45548;SDS011;31270;48.328;10.096;2023-06-04T07:59:21;4.75;;;2.50;;
45548;SDS011;31270;48.328;10.096;2023-06-04T08:01:50;2.40;;;1.92;;
45548;SDS011;31270;48.328;10.096;2023-06-04T08:04:16;3.40;;;2.25;;
45548;SDS011;31270;48.328;10.096;2023-06-04T08:06:43;4.90;;;1.95;;
45548;SDS011;31270;48.328;10.096;2023-06-04T08:09:09;3.05;;;1.77;;
45548;SDS011;31270;48.328;10.096;2023-06-04T08:11:36;3.78;;;2.17;;
45548;SDS011;31270;48.328;10.096;2023-06-04T08:14:02;4.47;;;2.38;;
45548;SDS011;31270;48.328;10.096;2023-06-04T08:16:27;4.70;;;2.30;;
45548;SDS011;31270;48.328;10.096;2023-06-04T08:18:53;3.40;;;1.90;;
45548;SDS011;31270;48.328;10.096;2023-06-04T08:21:25;3.75;;;2.17;;
45548;SDS011;31270;48.328;10.096;2023-06-04T08:23:52;4.53;;;2.60;;
45548;SDS011;31270;48.328;10.096;2023-06-04T08:26:18;3.40;;;2.20;;
45548;SDS011;31270;48.328;10.096;2023-06-04T08:28:44;5.75;;;2.28;;
45548;SDS011;31270;48.328;10.096;2023-06-04T08:31:14;3.35;;;2.60;;
45548;SDS011;31270;48.328;10.096;2023-06-04T08:33:39;3.60;;;2.08;;
45548;SDS011;31270;48.328;10.096;2023-06-04T08:36:05;3.90;;;2.20;;
45548;SDS011;31270;48.328;10.096;2023-06-04T08:38:31;3.70;;;2.10;;
45548;SDS011;31270;48.328;10.096;2023-06-04T08:40:57;2.75;;;2.10;;
45548;SDS011;31270;48.328;10.096;2023-06-04T08:43:37;3.00;;;2.25;;
45548;SDS011;31270;48.328;10.096;2023-06-04T08:46:05;5.18;;;2.30;;
45548;SDS011;31270;48.328;10.096;2023-06-04T08:48:33;3.20;;;2.20;;
45548;SDS011;31270;48.328;10.096;2023-06-04T08:51:01;3.83;;;2.42;;
45548;SDS011;31270;48.328;10.096;2023-06-04T08:53:30;3.38;;;2.35;;
45548;SDS011;31270;48.328;10.096;2023-06-04T08:55:56;3.88;;;2.33;;
45548;SDS011;31270;48.328;10.096;2023-06-04T08:58:22;3.40;;;2.63;;
45548;SDS011;31270;48.328;10.096;2023-06-04T09:00:49;3.17;;;2.85;;
45548;SDS011;31270;48.328;10.096;2023-06-04T09:03:15;13.75;;;10.10;;
45548;SDS011;31270;48.328;10.096;2023-06-04T09:05:43;5.25;;;3.53;;
45548;SDS011;31270;48.328;10.096;2023-06-04T09:08:13;3.80;;;2.63;;
45548;SDS011;31270;48.328;10.096;2023-06-04T09:10:40;4.00;;;2.20;;
45548;SDS011;31270;48.328;10.096;2023-06-04T09:13:06;3.40;;;2.47;;
45548;SDS011;31270;48.328;10.096;2023-06-04T09:15:33;2.85;;;2.42;;
45548;SDS011;31270;48.328;10.096;2023-06-04T09:17:59;3.60;;;2.58;;
45548;SDS011;31270;48.328;10.096;2023-06-04T09:20:24;3.88;;;2.38;;
45548;SDS011;31270;48.328;10.096;2023-06-04T09:22:50;3.30;;;2.40;;
45548;SDS011;31270;48.328;10.096;2023-06-04T09:25:23;5.72;;;2.60;;
45548;SDS011;31270;48.328;10.096;2023-06-04T09:27:56;2.42;;;2.22;;
45548;SDS011;31270;48.328;10.096;2023-06-04T09:30:31;3.30;;;2.45;;
45548;SDS011;31270;48.328;10.096;2023-06-04T09:33:06;3.08;;;2.42;;
45548;SDS011;31270;48.328;10.096;2023-06-04T09:35:32;4.10;;;2.60;;
45548;SDS011;31270;48.328;10.096;2023-06-04T09:37:58;4.97;;;2.50;;
45548;SDS011;31270;48.328;10.096;2023-06-04T09:40:24;2.95;;;2.20;;
45548;SDS011;31270;48.328;10.096;2023-06-04T09:42:50;3.55;;;2.00;;
45548;SDS011;31270;48.328;10.096;2023-06-04T09:45:32;2.88;;;2.55;;
45548;SDS011;31270;48.328;10.096;2023-06-04T09:48:03;2.38;;;2.10;;
45548;SDS011;31270;48.328;10.096;2023-06-04T09:50:33;3.92;;;2.30;;
45548;SDS011;31270;48.328;10.096;2023-06-04T09:53:00;5.13;;;2.28;;
45548;SDS011;31270;48.328;10.096;2023-06-04T09:55:27;5.28;;;2.92;;
45548;SDS011;31270;48.328;10.096;2023-06-04T09:57:53;3.22;;;2.53;;
45548;SDS011;31270;48.328;10.096;2023-06-04T10:00:19;3.53;;;2.55;;
45548;SDS011;31270;48.328;10.096;2023-06-04T10:02:47;2.75;;;2.20;;
45548;SDS011;31270;48.328;10.096;2023-06-04T10:05:14;2.97;;;2.40;;
45548;SDS011;31270;48.328;10.096;2023-06-04T10:07:44;2.92;;;2.15;;
45548;SDS011;31270;48.328;10.096;2023-06-04T10:10:15;3.05;;;2.28;;
45548;SDS011;31270;48.328;10.096;2023-06-04T10:12:43;3.25;;;2.28;;
45548;SDS011;31270;48.328;10.096;2023-06-04T10:15:11;2.60;;;2.08;;
45548;SDS011;31270;48.328;10.096;2023-06-04T10:17:38;3.22;;;2.40;;
45548;SDS011;31270;48.328;10.096;2023-06-04T10:20:04;2.90;;;2.28;;
45548;SDS011;31270;48.328;10.096;2023-06-04T10:22:33;3.58;;;2.30;;
45548;SDS011;31270;48.328;10.096;2023-06-04T10:24:59;3.78;;;2.45;;
45548;SDS011;31270;48.328;10.096;2023-06-04T10:27:25;5.13;;;2.58;;
45548;SDS011;31270;48.328;10.096;2023-06-04T10:29:51;3.47;;;2.28;;
45548;SDS011;31270;48.328;10.096;2023-06-04T10:32:17;3.28;;;2.22;;
45548;SDS011;31270;48.328;10.096;2023-06-04T10:34:44;3.85;;;2.42;;
45548;SDS011;31270;48.328;10.096;2023-06-04T10:37:28;3.20;;;2.35;;
45548;SDS011;31270;48.328;10.096;2023-06-04T10:39:57;2.85;;;2.33;;
45548;SDS011;31270;48.328;10.096;2023-06-04T10:42:24;3.30;;;2.78;;
45548;SDS011;31270;48.328;10.096;2023-06-04T10:44:50;2.67;;;2.38;;
45548;SDS011;31270;48.328;10.096;2023-06-04T10:47:27;3.75;;;2.83;;
45548;SDS011;31270;48.328;10.096;2023-06-04T10:50:09;3.92;;;2.60;;
45548;SDS011;31270;48.328;10.096;2023-06-04T10:52:36;2.95;;;2.40;;
45548;SDS011;31270;48.328;10.096;2023-06-04T10:55:05;4.20;;;2.92;;
45548;SDS011;31270;48.328;10.096;2023-06-04T10:57:34;3.22;;;2.67;;
45548;SDS011;31270;48.328;10.096;2023-06-04T11:00:00;3.47;;;2.50;;
45548;SDS011;31270;48.328;10.096;2023-06-04T11:02:29;4.78;;;2.88;;
45548;SDS011;31270;48.328;10.096;2023-06-04T11:04:58;3.42;;;2.75;;
45548;SDS011;31270;48.328;10.096;2023-06-04T11:08:07;6.88;;;3.30;;
45548;SDS011;31270;48.328;10.096;2023-06-04T11:10:30;5.38;;;2.83;;
45548;SDS011;31270;48.328;10.096;2023-06-04T11:12:58;4.35;;;2.90;;
45548;SDS011;31270;48.328;10.096;2023-06-04T11:15:24;5.60;;;3.20;;
45548;SDS011;31270;48.328;10.096;2023-06-04T11:17:50;4.40;;;3.40;;
45548;SDS011;31270;48.328;10.096;2023-06-04T11:20:16;5.82;;;3.75;;
45548;SDS011;31270;48.328;10.096;2023-06-04T11:22:50;4.65;;;3.60;;
45548;SDS011;31270;48.328;10.096;2023-06-04T11:25:19;3.70;;;3.30;;
45548;SDS011;31270;48.328;10.096;2023-06-04T11:27:47;7.13;;;3.65;;
45548;SDS011;31270;48.328;10.096;2023-06-04T11:30:13;3.28;;;2.97;;
45548;SDS011;31270;48.328;10.096;2023-06-04T11:32:40;4.70;;;3.15;;
45548;SDS011;31270;48.328;10.096;2023-06-04T11:35:06;4.40;;;3.03;;
45548;SDS011;31270;48.328;10.096;2023-06-04T11:37:32;4.28;;;3.33;;
45548;SDS011;31270;48.328;10.096;2023-06-04T11:39:58;4.47;;;3.45;;
45548;SDS011;31270;48.328;10.096;2023-06-04T11:42:26;3.70;;;3.25;;
45548;SDS011;31270;48.328;10.096;2023-06-04T11:44:56;3.60;;;2.65;;
45548;SDS011;31270;48.328;10.096;2023-06-04T11:47:22;4.68;;;3.22;;
45548;SDS011;31270;48.328;10.096;2023-06-04T11:49:53;21.73;;;4.40;;
45548;SDS011;31270;48.328;10.096;2023-06-04T11:52:21;3.88;;;3.20;;
45548;SDS011;31270;48.328;10.096;2023-06-04T11:54:46;4.38;;;2.90;;
45548;SDS011;31270;48.328;10.096;2023-06-04T11:57:12;3.53;;;2.63;;
45548;SDS011;31270;48.328;10.096;2023-06-04T11:59:38;3.42;;;2.80;;
45548;SDS011;31270;48.328;10.096;2023-06-04T12:02:04;4.10;;;3.15;;
45548;SDS011;31270;48.328;10.096;2023-06-04T12:04:33;3.72;;;3.28;;
45548;SDS011;31270;48.328;10.096;2023-06-04T12:06:59;5.35;;;3.10;;
45548;SDS011;31270;48.328;10.096;2023-06-04T12:09:28;4.70;;;3.35;;
45548;SDS011;31270;48.328;10.096;2023-06-04T12:12:03;3.72;;;2.85;;
45548;SDS011;31270;48.328;10.096;2023-06-04T12:14:30;4.28;;;3.13;;
45548;SDS011;31270;48.328;10.096;2023-06-04T12:17:10;3.53;;;2.78;;
45548;SDS011;31270;48.328;10.096;2023-06-04T12:19:48;5.90;;;3.22;;
45548;SDS011;31270;48.328;10.096;2023-06-04T12:22:15;4.60;;;3.15;;
45548;SDS011;31270;48.328;10.096;2023-06-04T12:24:48;3.78;;;2.97;;
45548;SDS011;31270;48.328;10.096;2023-06-04T12:27:18;6.93;;;3.67;;
45548;SDS011;31270;48.328;10.096;2023-06-04T12:30:02;5.07;;;3.40;;
45548;SDS011;31270;48.328;10.096;2023-06-04T12:32:34;4.78;;;3.55;;
45548;SDS011;31270;48.328;10.096;2023-06-04T12:35:01;4.45;;;2.92;;
45548;SDS011;31270;48.328;10.096;2023-06-04T12:37:26;5.13;;;3.53;;
45548;SDS011;31270;48.328;10.096;2023-06-04T12:39:55;4.18;;;3.30;;
45548;SDS011;31270;48.328;10.096;2023-06-04T12:42:21;4.88;;;3.47;;
45548;SDS011;31270;48.328;10.096;2023-06-04T12:44:51;4.40;;;3.22;;
45548;SDS011;31270;48.328;10.096;2023-06-04T12:47:16;5.28;;;3.20;;
45548;SDS011;31270;48.328;10.096;2023-06-04T12:49:42;4.80;;;3.30;;
45548;SDS011;31270;48.328;10.096;2023-06-04T12:52:09;3.92;;;3.00;;
45548;SDS011;31270;48.328;10.096;2023-06-04T12:54:35;4.78;;;3.10;;
45548;SDS011;31270;48.328;10.096;2023-06-04T12:57:00;6.93;;;3.53;;
45548;SDS011;31270;48.328;10.096;2023-06-04T12:59:26;5.20;;;2.95;;
45548;SDS011;31270;48.328;10.096;2023-06-04T13:01:53;5.32;;;3.22;;
45548;SDS011;31270;48.328;10.096;2023-06-04T13:04:20;4.13;;;3.15;;
45548;SDS011;31270;48.328;10.096;2023-06-04T13:06:45;3.90;;;3.15;;
45548;SDS011;31270;48.328;10.096;2023-06-04T13:09:11;5.88;;;3.40;;
45548;SDS011;31270;48.328;10.096;2023-06-04T13:11:41;5.43;;;3.40;;
45548;SDS011;31270;48.328;10.096;2023-06-04T13:14:08;3.45;;;2.58;;
45548;SDS011;31270;48.328;10.096;2023-06-04T13:16:35;3.95;;;2.78;;
45548;SDS011;31270;48.328;10.096;2023-06-04T13:19:01;4.45;;;2.95;;
45548;SDS011;31270;48.328;10.096;2023-06-04T13:21:27;6.55;;;3.20;;
45548;SDS011;31270;48.328;10.096;2023-06-04T13:23:53;4.20;;;3.20;;
45548;SDS011;31270;48.328;10.096;2023-06-04T13:26:18;4.43;;;3.20;;
45548;SDS011;31270;48.328;10.096;2023-06-04T13:28:44;5.85;;;3.22;;
45548;SDS011;31270;48.328;10.096;2023-06-04T13:31:10;3.50;;;2.72;;
45548;SDS011;31270;48.328;10.096;2023-06-04T13:33:36;3.20;;;2.58;;
45548;SDS011;31270;48.328;10.096;2023-06-04T13:39:25;3.53;;;2.78;;
45548;SDS011;31270;48.328;10.096;2023-06-04T13:41:51;6.38;;;3.83;;
45548;SDS011;31270;48.328;10.096;2023-06-04T13:44:17;3.92;;;2.95;;
45548;SDS011;31270;48.328;10.096;2023-06-04T13:46:43;3.55;;;2.72;;
45548;SDS011;31270;48.328;10.096;2023-06-04T13:49:09;4.10;;;3.15;;
45548;SDS011;31270;48.328;10.096;2023-06-04T13:51:34;4.40;;;3.13;;
45548;SDS011;31270;48.328;10.096;2023-06-04T13:54:01;4.28;;;2.88;;
45548;SDS011;31270;48.328;10.096;2023-06-04T13:56:26;3.20;;;2.72;;
45548;SDS011;31270;48.328;10.096;2023-06-04T13:58:52;3.28;;;2.80;;
45548;SDS011;31270;48.328;10.096;2023-06-04T14:01:18;5.70;;;2.92;;
45548;SDS011;31270;48.328;10.096;2023-06-04T14:03:43;4.43;;;3.17;;
45548;SDS011;31270;48.328;10.096;2023-06-04T14:06:09;4.82;;;3.67;;
45548;SDS011;31270;48.328;10.096;2023-06-04T14:08:35;3.80;;;2.85;;
45548;SDS011;31270;48.328;10.096;2023-06-04T14:11:00;4.65;;;3.10;;
45548;SDS011;31270;48.328;10.096;2023-06-04T14:13:26;5.07;;;3.50;;
45548;SDS011;31270;48.328;10.096;2023-06-04T14:15:52;5.00;;;3.25;;
45548;SDS011;31270;48.328;10.096;2023-06-04T14:18:18;4.32;;;3.00;;
45548;SDS011;31270;48.328;10.096;2023-06-04T14:20:44;4.72;;;3.20;;
45548;SDS011;31270;48.328;10.096;2023-06-04T14:23:10;5.20;;;3.30;;
45548;SDS011;31270;48.328;10.096;2023-06-04T14:25:36;3.53;;;2.80;;
45548;SDS011;31270;48.328;10.096;2023-06-04T14:28:02;4.30;;;3.38;;
45548;SDS011;31270;48.328;10.096;2023-06-04T14:30:28;4.38;;;3.30;;
45548;SDS011;31270;48.328;10.096;2023-06-04T14:32:54;4.13;;;2.78;;
45548;SDS011;31270;48.328;10.096;2023-06-04T14:35:20;5.85;;;3.50;;
45548;SDS011;31270;48.328;10.096;2023-06-04T14:37:45;4.75;;;3.45;;
45548;SDS011;31270;48.328;10.096;2023-06-04T14:40:11;4.43;;;3.10;;
45548;SDS011;31270;48.328;10.096;2023-06-04T14:42:37;4.25;;;2.92;;